sensor_id;sensor_type;location;lat;lon;timestamp;temperature;humidity
56300;DHT22;42209;6.376;-10.782;2023-04-23T00:00:56;22.00;40.60
56300;DHT22;42209;6.376;-10.782;2023-04-23T00:03:26;22.00;40.60
56300;DHT22;42209;6.376;-10.782;2023-04-23T00:05:56;22.00;40.60
56300;DHT22;42209;6.376;-10.782;2023-04-23T00:08:26;22.00;40.60
56300;DHT22;42209;6.376;-10.782;2023-04-23T00:10:54;21.90;40.60
56300;DHT22;42209;6.376;-10.782;2023-04-23T00:13:23;21.90;40.50
56300;DHT22;42209;6.376;-10.782;2023-04-23T00:15:51;21.90;40.60
56300;DHT22;42209;6.376;-10.782;2023-04-23T00:18:20;21.90;40.50
56300;DHT22;42209;6.376;-10.782;2023-04-23T00:20:48;21.90;40.50
56300;DHT22;42209;6.376;-10.782;2023-04-23T00:23:16;22.00;43.60
56300;DHT22;42209;6.376;-10.782;2023-04-23T00:25:45;22.30;50.60
56300;DHT22;42209;6.376;-10.782;2023-04-23T00:28:13;22.50;53.80
56300;DHT22;42209;6.376;-10.782;2023-04-23T00:30:41;22.70;55.60
56300;DHT22;42209;6.376;-10.782;2023-04-23T00:33:09;22.80;52.10
56300;DHT22;42209;6.376;-10.782;2023-04-23T00:35:38;22.60;48.40
56300;DHT22;42209;6.376;-10.782;2023-04-23T00:38:06;22.40;47.10
56300;DHT22;42209;6.376;-10.782;2023-04-23T00:40:34;22.30;46.00
56300;DHT22;42209;6.376;-10.782;2023-04-23T00:43:03;22.30;45.50
56300;DHT22;42209;6.376;-10.782;2023-04-23T00:45:31;22.10;44.90
56300;DHT22;42209;6.376;-10.782;2023-04-23T00:48:01;22.10;44.50
56300;DHT22;42209;6.376;-10.782;2023-04-23T00:50:28;22.20;44.20
56300;DHT22;42209;6.376;-10.782;2023-04-23T00:52:58;22.10;43.50
56300;DHT22;42209;6.376;-10.782;2023-04-23T00:55:27;22.10;43.10
56300;DHT22;42209;6.376;-10.782;2023-04-23T00:57:56;22.10;43.10
56300;DHT22;42209;6.376;-10.782;2023-04-23T01:00:24;22.10;42.60
56300;DHT22;42209;6.376;-10.782;2023-04-23T01:02:53;22.10;42.40
56300;DHT22;42209;6.376;-10.782;2023-04-23T01:05:21;22.10;42.50
56300;DHT22;42209;6.376;-10.782;2023-04-23T01:07:50;22.00;42.00
56300;DHT22;42209;6.376;-10.782;2023-04-23T01:10:19;22.00;42.10
56300;DHT22;42209;6.376;-10.782;2023-04-23T01:12:47;22.10;41.90
56300;DHT22;42209;6.376;-10.782;2023-04-23T01:15:16;22.00;42.00
56300;DHT22;42209;6.376;-10.782;2023-04-23T01:17:44;22.00;41.60
56300;DHT22;42209;6.376;-10.782;2023-04-23T01:20:14;22.00;41.60
56300;DHT22;42209;6.376;-10.782;2023-04-23T01:22:42;22.00;41.20
56300;DHT22;42209;6.376;-10.782;2023-04-23T01:25:10;22.00;41.00
56300;DHT22;42209;6.376;-10.782;2023-04-23T01:27:40;22.00;41.00
56300;DHT22;42209;6.376;-10.782;2023-04-23T01:30:08;22.00;40.90
56300;DHT22;42209;6.376;-10.782;2023-04-23T01:32:38;22.00;41.00
56300;DHT22;42209;6.376;-10.782;2023-04-23T01:35:08;21.90;40.70
56300;DHT22;42209;6.376;-10.782;2023-04-23T01:37:37;21.90;40.80
56300;DHT22;42209;6.376;-10.782;2023-04-23T01:40:05;21.90;40.50
56300;DHT22;42209;6.376;-10.782;2023-04-23T01:42:34;21.90;40.50
56300;DHT22;42209;6.376;-10.782;2023-04-23T01:45:02;21.90;40.50
56300;DHT22;42209;6.376;-10.782;2023-04-23T01:47:31;21.90;40.60
56300;DHT22;42209;6.376;-10.782;2023-04-23T01:49:59;21.90;40.40
56300;DHT22;42209;6.376;-10.782;2023-04-23T01:52:28;21.90;40.60
56300;DHT22;42209;6.376;-10.782;2023-04-23T01:54:56;21.90;40.70
56300;DHT22;42209;6.376;-10.782;2023-04-23T01:57:24;21.80;40.60
56300;DHT22;42209;6.376;-10.782;2023-04-23T02:00:02;21.80;40.90
56300;DHT22;42209;6.376;-10.782;2023-04-23T02:02:39;21.80;40.80
56300;DHT22;42209;6.376;-10.782;2023-04-23T02:05:16;21.80;40.60
56300;DHT22;42209;6.376;-10.782;2023-04-23T02:07:47;21.80;40.60
56300;DHT22;42209;6.376;-10.782;2023-04-23T02:10:16;21.80;40.40
56300;DHT22;42209;6.376;-10.782;2023-04-23T02:12:46;21.80;40.20
56300;DHT22;42209;6.376;-10.782;2023-04-23T02:15:15;21.80;40.30
56300;DHT22;42209;6.376;-10.782;2023-04-23T02:17:43;21.80;40.30
56300;DHT22;42209;6.376;-10.782;2023-04-23T02:20:12;21.80;40.30
56300;DHT22;42209;6.376;-10.782;2023-04-23T02:22:41;21.90;43.20
56300;DHT22;42209;6.376;-10.782;2023-04-23T02:25:10;22.00;49.30
56300;DHT22;42209;6.376;-10.782;2023-04-23T02:27:38;22.20;52.10
56300;DHT22;42209;6.376;-10.782;2023-04-23T02:30:08;22.50;54.80
56300;DHT22;42209;6.376;-10.782;2023-04-23T02:32:37;22.70;56.00
56300;DHT22;42209;6.376;-10.782;2023-04-23T02:35:05;22.80;55.70
56300;DHT22;42209;6.376;-10.782;2023-04-23T02:37:34;22.60;50.20
56300;DHT22;42209;6.376;-10.782;2023-04-23T02:40:03;22.40;48.60
56300;DHT22;42209;6.376;-10.782;2023-04-23T02:42:31;22.30;48.90
56300;DHT22;42209;6.376;-10.782;2023-04-23T02:45:00;22.40;56.10
56300;DHT22;42209;6.376;-10.782;2023-04-23T02:47:28;22.60;58.70
56300;DHT22;42209;6.376;-10.782;2023-04-23T02:49:56;22.80;60.00
56300;DHT22;42209;6.376;-10.782;2023-04-23T02:52:25;22.90;58.10
56300;DHT22;42209;6.376;-10.782;2023-04-23T02:54:53;22.80;52.90
56300;DHT22;42209;6.376;-10.782;2023-04-23T02:57:21;22.50;51.40
56300;DHT22;42209;6.376;-10.782;2023-04-23T02:59:50;22.40;49.50
56300;DHT22;42209;6.376;-10.782;2023-04-23T03:02:23;22.30;50.70
56300;DHT22;42209;6.376;-10.782;2023-04-23T03:04:52;22.50;57.20
56300;DHT22;42209;6.376;-10.782;2023-04-23T03:07:20;22.70;59.80
56300;DHT22;42209;6.376;-10.782;2023-04-23T03:09:48;22.90;60.80
56300;DHT22;42209;6.376;-10.782;2023-04-23T03:12:16;22.90;56.00
56300;DHT22;42209;6.376;-10.782;2023-04-23T03:14:44;22.70;52.20
56300;DHT22;42209;6.376;-10.782;2023-04-23T03:17:13;22.60;51.20
56300;DHT22;42209;6.376;-10.782;2023-04-23T03:19:41;22.40;50.30
56300;DHT22;42209;6.376;-10.782;2023-04-23T03:22:10;22.40;49.30
56300;DHT22;42209;6.376;-10.782;2023-04-23T03:24:38;22.30;48.30
56300;DHT22;42209;6.376;-10.782;2023-04-23T03:27:08;22.30;47.50
56300;DHT22;42209;6.376;-10.782;2023-04-23T03:29:36;22.20;46.70
56300;DHT22;42209;6.376;-10.782;2023-04-23T03:32:04;22.30;46.10
56300;DHT22;42209;6.376;-10.782;2023-04-23T03:34:33;22.20;45.30
56300;DHT22;42209;6.376;-10.782;2023-04-23T03:37:01;22.20;44.90
56300;DHT22;42209;6.376;-10.782;2023-04-23T03:39:32;22.10;44.40
56300;DHT22;42209;6.376;-10.782;2023-04-23T03:42:01;22.10;43.80
56300;DHT22;42209;6.376;-10.782;2023-04-23T03:44:30;22.10;43.40
56300;DHT22;42209;6.376;-10.782;2023-04-23T03:46:58;22.10;43.10
56300;DHT22;42209;6.376;-10.782;2023-04-23T03:49:27;22.00;42.60
56300;DHT22;42209;6.376;-10.782;2023-04-23T03:51:55;22.10;42.40
56300;DHT22;42209;6.376;-10.782;2023-04-23T03:54:24;22.00;42.20
56300;DHT22;42209;6.376;-10.782;2023-04-23T03:57:13;22.00;42.00
56300;DHT22;42209;6.376;-10.782;2023-04-23T04:00:05;21.90;41.70
56300;DHT22;42209;6.376;-10.782;2023-04-23T04:02:39;21.90;41.70
56300;DHT22;42209;6.376;-10.782;2023-04-23T04:05:08;21.90;41.50
56300;DHT22;42209;6.376;-10.782;2023-04-23T04:07:37;21.90;41.30
56300;DHT22;42209;6.376;-10.782;2023-04-23T04:10:06;21.90;41.30
56300;DHT22;42209;6.376;-10.782;2023-04-23T04:12:34;21.90;40.80
56300;DHT22;42209;6.376;-10.782;2023-04-23T04:15:03;21.80;40.70
56300;DHT22;42209;6.376;-10.782;2023-04-23T04:17:32;21.80;40.80
56300;DHT22;42209;6.376;-10.782;2023-04-23T04:20:00;21.80;40.80
56300;DHT22;42209;6.376;-10.782;2023-04-23T04:22:29;22.00;48.00
56300;DHT22;42209;6.376;-10.782;2023-04-23T04:24:57;22.20;51.40
56300;DHT22;42209;6.376;-10.782;2023-04-23T04:27:25;22.40;53.40
56300;DHT22;42209;6.376;-10.782;2023-04-23T04:29:53;22.60;55.80
56300;DHT22;42209;6.376;-10.782;2023-04-23T04:32:21;22.70;57.30
56300;DHT22;42209;6.376;-10.782;2023-04-23T04:34:50;22.70;52.60
56300;DHT22;42209;6.376;-10.782;2023-04-23T04:37:18;22.50;49.60
56300;DHT22;42209;6.376;-10.782;2023-04-23T04:39:46;22.30;48.20
56300;DHT22;42209;6.376;-10.782;2023-04-23T04:42:14;22.20;47.80
56300;DHT22;42209;6.376;-10.782;2023-04-23T04:44:43;22.30;55.40
56300;DHT22;42209;6.376;-10.782;2023-04-23T04:47:11;22.50;58.60
56300;DHT22;42209;6.376;-10.782;2023-04-23T04:49:39;22.70;60.60
56300;DHT22;42209;6.376;-10.782;2023-04-23T04:52:07;22.90;61.20
56300;DHT22;42209;6.376;-10.782;2023-04-23T04:54:36;22.80;55.40
56300;DHT22;42209;6.376;-10.782;2023-04-23T04:57:04;22.60;52.40
56300;DHT22;42209;6.376;-10.782;2023-04-23T04:59:32;22.50;50.80
56300;DHT22;42209;6.376;-10.782;2023-04-23T05:02:00;22.40;54.70
56300;DHT22;42209;6.376;-10.782;2023-04-23T05:04:29;22.50;59.40
56300;DHT22;42209;6.376;-10.782;2023-04-23T05:06:57;22.70;61.50
56300;DHT22;42209;6.376;-10.782;2023-04-23T05:09:25;22.90;63.20
56300;DHT22;42209;6.376;-10.782;2023-04-23T05:11:54;23.00;60.90
56300;DHT22;42209;6.376;-10.782;2023-04-23T05:14:22;22.80;55.40
56300;DHT22;42209;6.376;-10.782;2023-04-23T05:16:50;22.60;53.00
56300;DHT22;42209;6.376;-10.782;2023-04-23T05:19:19;22.40;51.70
56300;DHT22;42209;6.376;-10.782;2023-04-23T05:21:47;22.50;59.50
56300;DHT22;42209;6.376;-10.782;2023-04-23T05:24:15;22.60;61.10
56300;DHT22;42209;6.376;-10.782;2023-04-23T05:26:43;22.90;62.70
56300;DHT22;42209;6.376;-10.782;2023-04-23T05:29:12;23.00;64.00
56300;DHT22;42209;6.376;-10.782;2023-04-23T05:31:40;23.00;58.20
56300;DHT22;42209;6.376;-10.782;2023-04-23T05:34:08;22.80;55.00
56300;DHT22;42209;6.376;-10.782;2023-04-23T05:36:37;22.60;53.10
56300;DHT22;42209;6.376;-10.782;2023-04-23T05:39:05;22.50;51.90
56300;DHT22;42209;6.376;-10.782;2023-04-23T05:41:33;22.50;58.50
56300;DHT22;42209;6.376;-10.782;2023-04-23T05:44:01;22.70;61.30
56300;DHT22;42209;6.376;-10.782;2023-04-23T05:46:30;22.80;62.90
56300;DHT22;42209;6.376;-10.782;2023-04-23T05:48:58;23.10;64.30
56300;DHT22;42209;6.376;-10.782;2023-04-23T05:51:26;23.10;59.90
56300;DHT22;42209;6.376;-10.782;2023-04-23T05:53:54;22.80;55.70
56300;DHT22;42209;6.376;-10.782;2023-04-23T05:56:22;22.70;54.10
56300;DHT22;42209;6.376;-10.782;2023-04-23T05:58:51;22.60;52.60
56300;DHT22;42209;6.376;-10.782;2023-04-23T06:01:19;22.50;51.30
56300;DHT22;42209;6.376;-10.782;2023-04-23T06:03:47;22.40;50.10
56300;DHT22;42209;6.376;-10.782;2023-04-23T06:06:16;22.30;49.30
56300;DHT22;42209;6.376;-10.782;2023-04-23T06:08:44;22.30;48.20
56300;DHT22;42209;6.376;-10.782;2023-04-23T06:11:12;22.30;47.60
56300;DHT22;42209;6.376;-10.782;2023-04-23T06:13:40;22.20;46.80
56300;DHT22;42209;6.376;-10.782;2023-04-23T06:16:10;22.20;46.10
56300;DHT22;42209;6.376;-10.782;2023-04-23T06:18:38;22.20;45.70
56300;DHT22;42209;6.376;-10.782;2023-04-23T06:21:07;22.20;44.90
56300;DHT22;42209;6.376;-10.782;2023-04-23T06:23:35;22.10;44.60
56300;DHT22;42209;6.376;-10.782;2023-04-23T06:26:04;22.10;44.10
56300;DHT22;42209;6.376;-10.782;2023-04-23T06:28:32;22.00;43.70
56300;DHT22;42209;6.376;-10.782;2023-04-23T06:31:20;22.00;43.60
56300;DHT22;42209;6.376;-10.782;2023-04-23T06:33:49;22.00;43.20
56300;DHT22;42209;6.376;-10.782;2023-04-23T06:36:17;21.90;42.90
56300;DHT22;42209;6.376;-10.782;2023-04-23T06:38:45;21.90;42.90
56300;DHT22;42209;6.376;-10.782;2023-04-23T06:41:14;22.00;50.60
56300;DHT22;42209;6.376;-10.782;2023-04-23T06:43:43;22.20;53.20
56300;DHT22;42209;6.376;-10.782;2023-04-23T06:46:14;22.40;55.90
56300;DHT22;42209;6.376;-10.782;2023-04-23T06:48:42;22.60;58.20
56300;DHT22;42209;6.376;-10.782;2023-04-23T06:51:11;22.70;59.40
56300;DHT22;42209;6.376;-10.782;2023-04-23T06:53:39;22.80;60.80
56300;DHT22;42209;6.376;-10.782;2023-04-23T06:56:07;22.70;54.10
56300;DHT22;42209;6.376;-10.782;2023-04-23T06:58:36;22.50;51.40
56300;DHT22;42209;6.376;-10.782;2023-04-23T07:01:13;22.40;50.80
56300;DHT22;42209;6.376;-10.782;2023-04-23T07:03:41;22.30;50.30
56300;DHT22;42209;6.376;-10.782;2023-04-23T07:06:12;22.40;57.10
56300;DHT22;42209;6.376;-10.782;2023-04-23T07:08:41;22.60;59.50
56300;DHT22;42209;6.376;-10.782;2023-04-23T07:11:10;22.70;61.90
56300;DHT22;42209;6.376;-10.782;2023-04-23T07:13:38;22.90;63.00
56300;DHT22;42209;6.376;-10.782;2023-04-23T07:16:06;23.00;61.60
56300;DHT22;42209;6.376;-10.782;2023-04-23T07:18:34;22.80;55.20
56300;DHT22;42209;6.376;-10.782;2023-04-23T07:21:03;22.60;53.30
56300;DHT22;42209;6.376;-10.782;2023-04-23T07:23:31;22.40;55.60
56300;DHT22;42209;6.376;-10.782;2023-04-23T07:25:59;22.50;60.60
56300;DHT22;42209;6.376;-10.782;2023-04-23T07:28:27;22.70;62.50
56300;DHT22;42209;6.376;-10.782;2023-04-23T07:30:56;22.90;63.70
56300;DHT22;42209;6.376;-10.782;2023-04-23T07:33:24;23.10;64.70
56300;DHT22;42209;6.376;-10.782;2023-04-23T07:35:52;22.90;57.40
56300;DHT22;42209;6.376;-10.782;2023-04-23T07:38:20;22.70;54.70
56300;DHT22;42209;6.376;-10.782;2023-04-23T07:40:48;22.50;52.70
56300;DHT22;42209;6.376;-10.782;2023-04-23T07:43:17;22.40;54.20
56300;DHT22;42209;6.376;-10.782;2023-04-23T07:45:45;22.60;59.90
56300;DHT22;42209;6.376;-10.782;2023-04-23T07:48:13;22.80;62.70
56300;DHT22;42209;6.376;-10.782;2023-04-23T07:50:42;22.90;63.50
56300;DHT22;42209;6.376;-10.782;2023-04-23T07:53:10;23.00;62.60
56300;DHT22;42209;6.376;-10.782;2023-04-23T07:55:38;22.90;57.00
56300;DHT22;42209;6.376;-10.782;2023-04-23T07:58:06;22.70;54.60
56300;DHT22;42209;6.376;-10.782;2023-04-23T08:00:35;22.50;52.90
56300;DHT22;42209;6.376;-10.782;2023-04-23T08:03:03;22.50;55.70
56300;DHT22;42209;6.376;-10.782;2023-04-23T08:05:31;22.60;60.40
56300;DHT22;42209;6.376;-10.782;2023-04-23T08:08:00;22.80;62.70
56300;DHT22;42209;6.376;-10.782;2023-04-23T08:10:28;23.00;63.80
56300;DHT22;42209;6.376;-10.782;2023-04-23T08:12:56;23.10;63.60
56300;DHT22;42209;6.376;-10.782;2023-04-23T08:15:24;23.00;57.80
56300;DHT22;42209;6.376;-10.782;2023-04-23T08:17:52;22.70;55.50
56300;DHT22;42209;6.376;-10.782;2023-04-23T08:20:21;22.60;54.80
56300;DHT22;42209;6.376;-10.782;2023-04-23T08:22:50;22.60;53.70
56300;DHT22;42209;6.376;-10.782;2023-04-23T08:25:19;22.50;52.60
56300;DHT22;42209;6.376;-10.782;2023-04-23T08:27:47;22.40;51.50
56300;DHT22;42209;6.376;-10.782;2023-04-23T08:30:15;22.40;50.20
56300;DHT22;42209;6.376;-10.782;2023-04-23T08:32:43;22.40;49.20
56300;DHT22;42209;6.376;-10.782;2023-04-23T08:35:11;22.20;48.60
56300;DHT22;42209;6.376;-10.782;2023-04-23T08:37:40;22.20;49.20
56300;DHT22;42209;6.376;-10.782;2023-04-23T08:40:08;22.20;48.70
56300;DHT22;42209;6.376;-10.782;2023-04-23T08:42:48;22.20;47.60
56300;DHT22;42209;6.376;-10.782;2023-04-23T08:45:17;22.20;46.80
56300;DHT22;42209;6.376;-10.782;2023-04-23T08:47:45;22.10;46.30
56300;DHT22;42209;6.376;-10.782;2023-04-23T08:50:15;22.10;45.70
56300;DHT22;42209;6.376;-10.782;2023-04-23T08:52:53;22.10;45.40
56300;DHT22;42209;6.376;-10.782;2023-04-23T08:55:22;22.00;45.30
56300;DHT22;42209;6.376;-10.782;2023-04-23T08:57:50;21.90;44.90
56300;DHT22;42209;6.376;-10.782;2023-04-23T09:00:19;21.60;49.90
56300;DHT22;42209;6.376;-10.782;2023-04-23T09:02:48;21.90;55.20
56300;DHT22;42209;6.376;-10.782;2023-04-23T09:05:16;22.20;58.10
56300;DHT22;42209;6.376;-10.782;2023-04-23T09:07:45;22.40;60.90
56300;DHT22;42209;6.376;-10.782;2023-04-23T09:10:13;22.60;63.50
56300;DHT22;42209;6.376;-10.782;2023-04-23T09:12:45;22.70;60.60
56300;DHT22;42209;6.376;-10.782;2023-04-23T09:15:13;22.20;57.80
56300;DHT22;42209;6.376;-10.782;2023-04-23T09:17:45;21.80;56.90
56300;DHT22;42209;6.376;-10.782;2023-04-23T09:20:14;21.70;61.20
56300;DHT22;42209;6.376;-10.782;2023-04-23T09:22:45;22.10;64.90
56300;DHT22;42209;6.376;-10.782;2023-04-23T09:25:19;22.50;68.50
56300;DHT22;42209;6.376;-10.782;2023-04-23T09:27:49;22.90;70.90
56300;DHT22;42209;6.376;-10.782;2023-04-23T09:30:18;22.70;64.20
56300;DHT22;42209;6.376;-10.782;2023-04-23T09:32:47;22.40;60.80
56300;DHT22;42209;6.376;-10.782;2023-04-23T09:35:16;22.10;59.40
56300;DHT22;42209;6.376;-10.782;2023-04-23T09:37:47;22.00;58.60
56300;DHT22;42209;6.376;-10.782;2023-04-23T09:40:21;22.10;63.80
56300;DHT22;42209;6.376;-10.782;2023-04-23T09:42:51;22.50;67.60
56300;DHT22;42209;6.376;-10.782;2023-04-23T09:45:19;22.90;70.20
56300;DHT22;42209;6.376;-10.782;2023-04-23T09:53:00;22.20;60.30
56300;DHT22;42209;6.376;-10.782;2023-04-23T09:55:30;22.10;59.70
56300;DHT22;42209;6.376;-10.782;2023-04-23T09:57:58;22.00;59.00
56300;DHT22;42209;6.376;-10.782;2023-04-23T10:00:32;21.90;60.50
56300;DHT22;42209;6.376;-10.782;2023-04-23T10:03:01;22.30;67.00
56300;DHT22;42209;6.376;-10.782;2023-04-23T10:05:30;22.70;69.40
56300;DHT22;42209;6.376;-10.782;2023-04-23T10:08:17;22.90;65.70
56300;DHT22;42209;6.376;-10.782;2023-04-23T10:10:47;22.60;61.30
56300;DHT22;42209;6.376;-10.782;2023-04-23T10:13:18;22.20;59.50
56300;DHT22;42209;6.376;-10.782;2023-04-23T10:15:48;22.10;58.50
56300;DHT22;42209;6.376;-10.782;2023-04-23T10:18:16;22.00;58.40
56300;DHT22;42209;6.376;-10.782;2023-04-23T10:20:47;21.90;57.60
56300;DHT22;42209;6.376;-10.782;2023-04-23T10:23:18;22.10;63.00
56300;DHT22;42209;6.376;-10.782;2023-04-23T10:25:52;22.50;67.00
56300;DHT22;42209;6.376;-10.782;2023-04-23T10:28:22;22.90;68.30
56300;DHT22;42209;6.376;-10.782;2023-04-23T10:30:53;22.70;62.00
56300;DHT22;42209;6.376;-10.782;2023-04-23T10:33:21;22.40;59.90
56300;DHT22;42209;6.376;-10.782;2023-04-23T10:35:56;22.20;58.80
56300;DHT22;42209;6.376;-10.782;2023-04-23T10:38:25;22.10;58.10
56300;DHT22;42209;6.376;-10.782;2023-04-23T10:40:55;22.00;57.20
56300;DHT22;42209;6.376;-10.782;2023-04-23T10:43:25;22.20;62.50
56300;DHT22;42209;6.376;-10.782;2023-04-23T10:45:53;22.60;66.60
56300;DHT22;42209;6.376;-10.782;2023-04-23T10:48:22;22.90;67.10
56300;DHT22;42209;6.376;-10.782;2023-04-23T10:50:57;22.70;62.50
56300;DHT22;42209;6.376;-10.782;2023-04-23T10:53:45;22.30;60.30
56300;DHT22;42209;6.376;-10.782;2023-04-23T10:56:14;22.00;58.90
56300;DHT22;42209;6.376;-10.782;2023-04-23T10:58:49;21.80;59.30
56300;DHT22;42209;6.376;-10.782;2023-04-23T11:01:18;22.10;65.30
56300;DHT22;42209;6.376;-10.782;2023-04-23T11:03:46;22.60;67.90
56300;DHT22;42209;6.376;-10.782;2023-04-23T11:12:00;22.20;59.80
56300;DHT22;42209;6.376;-10.782;2023-04-23T11:17:14;21.90;60.20
56300;DHT22;42209;6.376;-10.782;2023-04-23T11:22:40;22.70;67.10
56300;DHT22;42209;6.376;-10.782;2023-04-23T11:25:27;22.90;64.60
56300;DHT22;42209;6.376;-10.782;2023-04-23T11:27:56;22.50;60.40
56300;DHT22;42209;6.376;-10.782;2023-04-23T11:30:27;22.20;58.40
56300;DHT22;42209;6.376;-10.782;2023-04-23T11:32:57;22.00;57.20
56300;DHT22;42209;6.376;-10.782;2023-04-23T11:35:27;21.90;57.50
56300;DHT22;42209;6.376;-10.782;2023-04-23T11:37:56;22.20;63.70
56300;DHT22;42209;6.376;-10.782;2023-04-23T11:40:24;22.60;67.10
56300;DHT22;42209;6.376;-10.782;2023-04-23T11:42:53;22.90;67.20
56300;DHT22;42209;6.376;-10.782;2023-04-23T11:47:56;22.40;59.90
56300;DHT22;42209;6.376;-10.782;2023-04-23T11:50:28;22.20;58.10
56300;DHT22;42209;6.376;-10.782;2023-04-23T11:52:56;22.00;56.90
56300;DHT22;42209;6.376;-10.782;2023-04-23T11:55:25;22.10;58.60
56300;DHT22;42209;6.376;-10.782;2023-04-23T11:57:56;22.50;63.10
56300;DHT22;42209;6.376;-10.782;2023-04-23T12:00:26;22.80;65.30
56300;DHT22;42209;6.376;-10.782;2023-04-23T12:03:04;22.90;63.20
56300;DHT22;42209;6.376;-10.782;2023-04-23T12:05:34;22.80;58.30
56300;DHT22;42209;6.376;-10.782;2023-04-23T12:08:19;22.60;55.80
56300;DHT22;42209;6.376;-10.782;2023-04-23T12:10:58;22.50;55.60
56300;DHT22;42209;6.376;-10.782;2023-04-23T12:13:29;22.70;60.80
56300;DHT22;42209;6.376;-10.782;2023-04-23T12:15:59;22.80;63.30
56300;DHT22;42209;6.376;-10.782;2023-04-23T12:18:29;23.00;65.40
56300;DHT22;42209;6.376;-10.782;2023-04-23T12:23:33;23.00;58.00
56300;DHT22;42209;6.376;-10.782;2023-04-23T12:26:02;22.80;55.70
56300;DHT22;42209;6.376;-10.782;2023-04-23T12:28:30;22.60;56.70
56300;DHT22;42209;6.376;-10.782;2023-04-23T12:31:00;22.70;61.40
56300;DHT22;42209;6.376;-10.782;2023-04-23T12:33:29;22.90;63.70
56300;DHT22;42209;6.376;-10.782;2023-04-23T12:35:58;23.10;66.20
56300;DHT22;42209;6.376;-10.782;2023-04-23T12:38:28;23.20;63.40
56300;DHT22;42209;6.376;-10.782;2023-04-23T12:40:58;23.10;59.20
56300;DHT22;42209;6.376;-10.782;2023-04-23T12:43:27;22.80;56.60
56300;DHT22;42209;6.376;-10.782;2023-04-23T12:45:55;22.70;54.50
56300;DHT22;42209;6.376;-10.782;2023-04-23T12:48:23;22.70;59.50
56300;DHT22;42209;6.376;-10.782;2023-04-23T12:50:52;22.80;62.20
56300;DHT22;42209;6.376;-10.782;2023-04-23T12:53:20;23.00;64.30
56300;DHT22;42209;6.376;-10.782;2023-04-23T12:55:49;23.20;66.30
56300;DHT22;42209;6.376;-10.782;2023-04-23T12:58:17;23.20;61.40
56300;DHT22;42209;6.376;-10.782;2023-04-23T13:00:45;23.00;57.70
56300;DHT22;42209;6.376;-10.782;2023-04-23T13:03:13;22.80;55.70
56300;DHT22;42209;6.376;-10.782;2023-04-23T13:05:42;22.70;53.80
56300;DHT22;42209;6.376;-10.782;2023-04-23T13:08:10;22.70;59.60
56300;DHT22;42209;6.376;-10.782;2023-04-23T13:10:38;22.90;62.40
56300;DHT22;42209;6.376;-10.782;2023-04-23T13:13:07;23.10;64.40
56300;DHT22;42209;6.376;-10.782;2023-04-23T13:15:35;23.30;63.90
56300;DHT22;42209;6.376;-10.782;2023-04-23T13:18:05;23.10;57.90
56300;DHT22;42209;6.376;-10.782;2023-04-23T13:20:33;22.80;54.70
56300;DHT22;42209;6.376;-10.782;2023-04-23T13:23:03;22.70;53.80
56300;DHT22;42209;6.376;-10.782;2023-04-23T13:25:31;22.80;58.90
56300;DHT22;42209;6.376;-10.782;2023-04-23T13:27:59;22.90;61.40
56300;DHT22;42209;6.376;-10.782;2023-04-23T13:30:27;23.10;63.20
56300;DHT22;42209;6.376;-10.782;2023-04-23T13:32:56;23.20;64.40
56300;DHT22;42209;6.376;-10.782;2023-04-23T13:35:24;23.10;59.00
56300;DHT22;42209;6.376;-10.782;2023-04-23T13:37:52;22.90;54.60
56300;DHT22;42209;6.376;-10.782;2023-04-23T13:40:21;22.70;53.40
56300;DHT22;42209;6.376;-10.782;2023-04-23T13:42:49;22.70;58.30
56300;DHT22;42209;6.376;-10.782;2023-04-23T13:45:17;22.90;61.10
56300;DHT22;42209;6.376;-10.782;2023-04-23T13:47:46;23.00;63.20
56300;DHT22;42209;6.376;-10.782;2023-04-23T13:50:14;23.20;64.30
56300;DHT22;42209;6.376;-10.782;2023-04-23T13:52:42;23.10;59.20
56300;DHT22;42209;6.376;-10.782;2023-04-23T13:55:10;22.90;54.90
56300;DHT22;42209;6.376;-10.782;2023-04-23T13:57:39;22.70;51.90
56300;DHT22;42209;6.376;-10.782;2023-04-23T14:00:08;22.70;57.50
56300;DHT22;42209;6.376;-10.782;2023-04-23T14:02:36;22.90;60.40
56300;DHT22;42209;6.376;-10.782;2023-04-23T14:05:05;23.00;62.60
56300;DHT22;42209;6.376;-10.782;2023-04-23T14:07:34;23.20;63.80
56300;DHT22;42209;6.376;-10.782;2023-04-23T14:10:02;23.20;59.40
56300;DHT22;42209;6.376;-10.782;2023-04-23T14:12:30;22.90;55.00
56300;DHT22;42209;6.376;-10.782;2023-04-23T14:14:59;22.70;52.30
56300;DHT22;42209;6.376;-10.782;2023-04-23T14:17:27;22.70;58.40
56300;DHT22;42209;6.376;-10.782;2023-04-23T14:19:55;22.90;61.40
56300;DHT22;42209;6.376;-10.782;2023-04-23T14:22:23;23.20;63.00
56300;DHT22;42209;6.376;-10.782;2023-04-23T14:24:56;23.30;64.50
56300;DHT22;42209;6.376;-10.782;2023-04-23T14:27:31;23.30;58.70
56300;DHT22;42209;6.376;-10.782;2023-04-23T14:30:02;22.90;54.70
56300;DHT22;42209;6.376;-10.782;2023-04-23T14:32:31;22.80;51.90
56300;DHT22;42209;6.376;-10.782;2023-04-23T14:34:59;22.70;58.10
56300;DHT22;42209;6.376;-10.782;2023-04-23T14:37:27;22.90;60.80
56300;DHT22;42209;6.376;-10.782;2023-04-23T14:39:56;23.10;63.00
56300;DHT22;42209;6.376;-10.782;2023-04-23T14:42:24;23.20;63.70
56300;DHT22;42209;6.376;-10.782;2023-04-23T14:44:52;23.30;59.40
56300;DHT22;42209;6.376;-10.782;2023-04-23T14:47:21;23.00;55.50
56300;DHT22;42209;6.376;-10.782;2023-04-23T14:49:49;22.70;52.00
56300;DHT22;42209;6.376;-10.782;2023-04-23T14:52:17;22.70;58.00
56300;DHT22;42209;6.376;-10.782;2023-04-23T14:54:46;22.90;60.80
56300;DHT22;42209;6.376;-10.782;2023-04-23T14:57:14;23.10;62.90
56300;DHT22;42209;6.376;-10.782;2023-04-23T14:59:42;23.20;63.40
56300;DHT22;42209;6.376;-10.782;2023-04-23T15:02:13;23.20;57.80
56300;DHT22;42209;6.376;-10.782;2023-04-23T15:04:42;22.90;54.10
56300;DHT22;42209;6.376;-10.782;2023-04-23T15:07:10;22.70;51.90
56300;DHT22;42209;6.376;-10.782;2023-04-23T15:09:38;22.60;57.10
56300;DHT22;42209;6.376;-10.782;2023-04-23T15:12:16;22.80;60.10
56300;DHT22;42209;6.376;-10.782;2023-04-23T15:14:54;23.00;62.10
56300;DHT22;42209;6.376;-10.782;2023-04-23T15:17:22;23.20;62.20
56300;DHT22;42209;6.376;-10.782;2023-04-23T15:19:51;23.10;55.70
56300;DHT22;42209;6.376;-10.782;2023-04-23T15:22:19;22.80;51.80
56300;DHT22;42209;6.376;-10.782;2023-04-23T15:24:47;22.60;52.90
56300;DHT22;42209;6.376;-10.782;2023-04-23T15:27:15;22.70;57.80
56300;DHT22;42209;6.376;-10.782;2023-04-23T15:29:44;22.90;60.20
56300;DHT22;42209;6.376;-10.782;2023-04-23T15:32:12;23.10;61.00
56300;DHT22;42209;6.376;-10.782;2023-04-23T15:34:41;23.20;59.00
56300;DHT22;42209;6.376;-10.782;2023-04-23T15:37:09;23.10;54.10
56300;DHT22;42209;6.376;-10.782;2023-04-23T15:39:37;22.80;50.40
56300;DHT22;42209;6.376;-10.782;2023-04-23T15:42:06;22.60;53.30
56300;DHT22;42209;6.376;-10.782;2023-04-23T15:44:34;22.70;58.00
56300;DHT22;42209;6.376;-10.782;2023-04-23T15:47:02;22.90;60.40
56300;DHT22;42209;6.376;-10.782;2023-04-23T15:49:31;23.10;60.40